Time;durP1;ratioP1;P1;durP2;ratioP2;P2;SDS_P1;SDS_P2;PMS_P1;PMS_P2;Temp;Humidity;BMP_temperature;BMP_pressure;BME280_temperature;BME280_humidity;BME280_pressure;Samples;Min_cycle;Max_cycle;Signal;HPM_P1;HPM_P2
2021/05/13 00:00:09;;;;;;;3.25;2.20;;;;;;;14.53;62.92;100071.00;5070344;28;20024;-65
2021/05/13 00:02:34;;;;;;;2.80;2.28;;;;;;;14.39;63.82;100072.38;5087134;28;20047;-64
2021/05/13 00:05:00;;;;;;;2.08;1.98;;;;;;;14.30;63.72;100062.09;5075577;28;20392;-63
2021/05/13 00:07:25;;;;;;;3.03;2.15;;;;;;;14.65;61.89;100065.28;5071177;28;20479;-64
2021/05/13 00:09:50;;;;;;;2.20;1.67;;;;;;;14.05;65.28;100054.94;5072560;28;20060;-64
2021/05/13 00:13:16;;;;;;;2.92;1.70;;;;;;;14.80;61.01;100063.88;5079488;28;20028;-64
2021/05/13 00:15:14;;;;;;;4.32;1.60;;;;;;;14.23;63.09;100064.94;5076874;28;20047;-64
2021/05/13 00:17:39;;;;;;;3.22;1.73;;;;;;;14.56;62.21;100054.97;5091164;28;20028;-64
2021/05/13 00:20:08;;;;;;;2.22;2.08;;;;;;;14.32;62.24;100062.88;5091044;28;20039;-64
2021/05/13 00:22:34;;;;;;;1.85;1.75;;;;;;;14.79;61.44;100053.31;5089310;28;20028;-65
2021/05/13 00:25:00;;;;;;;1.98;1.88;;;;;;;14.49;62.39;100057.88;5075172;28;20089;-64
2021/05/13 00:27:25;;;;;;;2.42;2.00;;;;;;;14.54;62.76;100062.13;5070980;28;20068;-64
2021/05/13 00:29:50;;;;;;;2.97;1.60;;;;;;;14.85;60.59;100039.81;5071171;28;20104;-64
2021/05/13 00:32:16;;;;;;;2.55;2.00;;;;;;;14.52;62.30;100051.56;5071320;28;20037;-63
2021/05/13 00:34:41;;;;;;;2.08;1.83;;;;;;;14.74;61.86;100043.69;5071135;28;20017;-63
2021/05/13 00:37:06;;;;;;;5.43;2.00;;;;;;;14.43;62.13;100044.81;5078582;28;20025;-64
2021/05/13 00:39:31;;;;;;;1.50;1.40;;;;;;;14.22;63.42;100046.41;5080510;28;20548;-64
2021/05/13 00:41:57;;;;;;;2.35;1.80;;;;;;;14.48;62.68;100036.69;5082142;28;20027;-64
2021/05/13 00:44:22;;;;;;;2.05;1.65;;;;;;;14.33;62.71;100038.97;5091173;28;20024;-65
2021/05/13 00:46:48;;;;;;;2.05;1.63;;;;;;;14.57;61.59;100031.03;5082138;28;20017;-64
2021/05/13 00:49:16;;;;;;;2.00;1.80;;;;;;;14.73;61.18;100030.47;5074453;28;20029;-66
2021/05/13 00:51:41;;;;;;;2.22;1.77;;;;;;;14.48;62.54;100031.38;5073361;28;20070;-64
2021/05/13 00:54:06;;;;;;;2.00;1.80;;;;;;;14.45;61.73;100027.06;5090573;28;20120;-65
2021/05/13 00:56:33;;;;;;;2.13;1.55;;;;;;;14.15;63.70;100028.97;5092812;28;20024;-64
2021/05/13 00:59:05;;;;;;;2.25;1.80;;;;;;;14.18;62.81;100024.47;5092425;28;20024;-64
2021/05/13 01:04:25;;;;;;;2.10;1.95;;;;;;;13.98;63.31;100027.78;5072321;28;20071;-64
2021/05/13 01:06:51;;;;;;;1.85;1.52;;;;;;;14.22;63.06;100025.19;5093067;28;20052;-64
2021/05/13 01:09:24;;;;;;;2.75;1.70;;;;;;;13.87;64.50;100025.47;5084596;28;20390;-65
2021/05/13 01:11:53;;;;;;;2.80;1.88;;;;;;;14.42;62.12;100027.16;5073097;28;20020;-64
2021/05/13 01:19:38;;;;;;;2.00;1.80;;;;;;;14.30;61.88;100033.75;5068972;28;20032;-65
2021/05/13 01:22:03;;;;;;;1.73;1.50;;;;;;;14.20;63.14;100027.91;5074933;28;20384;-63
2021/05/13 01:24:29;;;;;;;2.03;1.65;;;;;;;14.09;63.50;100024.75;5075162;28;20039;-63
2021/05/13 01:26:55;;;;;;;1.65;1.55;;;;;;;14.00;64.31;100022.44;5072460;28;20541;-63
2021/05/13 01:29:23;;;;;;;2.72;1.95;;;;;;;13.65;63.90;100018.25;5072575;28;20050;-63
2021/05/13 01:31:49;;;;;;;2.08;1.67;;;;;;;13.53;65.42;100013.31;5073791;28;20028;-63
2021/05/13 01:34:16;;;;;;;2.35;2.15;;;;;;;13.47;65.33;100022.31;5089311;28;20024;-63
2021/05/13 01:36:41;;;;;;;2.78;1.55;;;;;;;13.51;64.75;100017.81;5090145;28;20395;-62
2021/05/13 01:39:08;;;;;;;1.50;1.40;;;;;;;13.63;65.55;100011.28;5093589;28;20020;-63
2021/05/13 01:41:34;;;;;;;1.95;1.85;;;;;;;13.80;64.22;100013.34;5078873;28;20107;-63
2021/05/13 01:43:59;;;;;;;1.85;1.75;;;;;;;13.72;65.20;100016.25;5073552;28;20079;-64
2021/05/13 01:46:25;;;;;;;1.65;1.55;;;;;;;13.76;64.75;100012.59;5073528;28;20435;-63
2021/05/13 01:48:51;;;;;;;3.20;1.83;;;;;;;14.10;63.50;100006.16;5079648;28;20024;-64
2021/05/13 01:51:16;;;;;;;2.90;1.60;;;;;;;14.02;64.58;100012.63;5073354;28;20051;-64
2021/05/13 01:53:42;;;;;;;1.70;1.60;;;;;;;13.90;65.11;100009.47;5077949;28;20128;-64
2021/05/13 01:56:09;;;;;;;1.95;1.38;;;;;;;14.21;62.97;100003.09;5078945;28;20028;-64
2021/05/13 01:58:35;;;;;;;1.77;1.50;;;;;;;14.03;63.86;100006.41;5092020;28;20648;-64
2021/05/13 02:01:00;;;;;;;3.28;1.83;;;;;;;14.24;62.95;100008.31;5093188;28;20034;-64
2021/05/13 02:03:26;;;;;;;1.73;1.60;;;;;;;13.76;64.14;99991.38;5082303;28;20047;-64
2021/05/13 02:05:51;;;;;;;1.77;1.67;;;;;;;13.48;65.40;99989.63;5089859;28;20043;-64
2021/05/13 02:08:17;;;;;;;2.03;1.85;;;;;;;13.85;65.92;99982.25;5092817;28;20476;-64
2021/05/13 02:10:42;;;;;;;1.85;1.75;;;;;;;13.41;65.93;99985.44;5091915;28;20035;-64
2021/05/13 02:13:07;;;;;;;2.15;1.73;;;;;;;14.03;64.64;99988.72;5090126;28;20020;-64
2021/05/13 02:15:33;;;;;;;1.95;1.80;;;;;;;13.52;65.81;99979.81;5091832;28;20621;-64
2021/05/13 02:17:58;;;;;;;1.77;1.48;;;;;;;13.69;66.61;99972.19;5092456;28;20028;-65
2021/05/13 02:20:24;;;;;;;3.08;1.95;;;;;;;13.84;64.96;99972.59;5091921;28;20107;-64
2021/05/13 02:22:50;;;;;;;4.93;1.95;;;;;;;14.10;64.98;99973.44;5089935;28;20024;-64
2021/05/13 02:25:15;;;;;;;1.65;1.55;;;;;;;14.04;64.99;99963.06;5071300;28;20055;-64
2021/05/13 02:27:41;;;;;;;1.65;1.55;;;;;;;14.02;63.99;99962.25;5071445;28;20020;-64
2021/05/13 02:30:08;;;;;;;2.35;2.15;;;;;;;13.87;66.36;99964.50;5071311;28;20032;-64
2021/05/13 02:32:34;;;;;;;2.10;1.88;;;;;;;14.83;62.91;99959.34;5073875;28;20107;-65
2021/05/13 02:34:59;;;;;;;2.28;1.95;;;;;;;14.67;63.24;99948.44;5073667;28;20108;-64
2021/05/13 02:37:25;;;;;;;1.88;1.70;;;;;;;14.45;63.48;99958.06;5072329;28;20020;-64
2021/05/13 02:39:50;;;;;;;3.20;1.58;;;;;;;14.04;65.08;99955.97;5077969;28;20035;-63
2021/05/13 02:42:16;;;;;;;1.70;1.60;;;;;;;14.29;64.70;99954.22;5072298;28;20024;-63
2021/05/13 02:44:42;;;;;;;2.10;1.80;;;;;;;14.59;62.60;99944.28;5071279;28;20032;-63
2021/05/13 02:47:07;;;;;;;2.22;2.00;;;;;;;14.70;63.06;99941.22;5071065;28;20024;-64
2021/05/13 02:49:32;;;;;;;2.33;1.50;;;;;;;14.29;63.41;99935.66;5076643;28;20456;-64
2021/05/13 02:51:58;;;;;;;3.90;2.15;;;;;;;14.57;63.34;99939.97;5072531;28;20028;-64
2021/05/13 02:54:23;;;;;;;1.88;1.77;;;;;;;14.09;63.67;99946.09;5072102;28;20438;-63
2021/05/13 02:56:48;;;;;;;1.70;1.60;;;;;;;13.60;65.19;99949.50;5070818;28;20025;-63
2021/05/13 02:59:16;;;;;;;2.35;1.70;;;;;;;14.20;62.98;99943.03;5072036;28;20028;-63
2021/05/13 03:01:41;;;;;;;1.90;1.80;;;;;;;14.54;63.53;99934.78;5086529;28;20395;-64
2021/05/13 03:04:06;;;;;;;1.98;1.80;;;;;;;14.26;64.06;99938.44;5092257;28;20024;-63
2021/05/13 03:06:32;;;;;;;3.25;1.90;;;;;;;14.09;62.29;99935.47;5089936;28;20024;-64
2021/05/13 03:08:58;;;;;;;2.15;2.00;;;;;;;14.27;63.81;99933.06;5091622;28;20082;-64
2021/05/13 03:11:25;;;;;;;2.55;1.67;;;;;;;14.41;63.46;99943.19;5080297;28;20093;-64
2021/05/13 03:13:53;;;;;;;4.00;1.98;;;;;;;13.50;67.47;99949.88;5071878;28;20066;-64
2021/05/13 03:16:19;;;;;;;2.70;2.05;;;;;;;14.19;63.97;99941.31;5083840;28;20459;-64
2021/05/13 03:18:49;;;;;;;2.28;2.10;;;;;;;14.04;63.95;99937.41;5070547;28;20085;-64
2021/05/13 03:21:29;;;;;;;2.35;1.88;;;;;;;13.73;64.88;99944.66;5058156;28;20028;-64
2021/05/13 03:24:05;;;;;;;2.00;1.90;;;;;;;13.68;63.92;99940.44;5071649;28;20028;-64
2021/05/13 03:28:55;;;;;;;2.38;2.13;;;;;;;13.96;64.56;99931.53;5089451;28;20062;-64
2021/05/13 03:31:21;;;;;;;2.45;2.25;;;;;;;13.71;64.53;99937.69;5088597;28;20546;-64
2021/05/13 03:33:46;;;;;;;1.95;1.77;;;;;;;13.53;65.75;99936.50;5083819;28;20016;-64
2021/05/13 03:36:11;;;;;;;3.75;2.10;;;;;;;14.05;64.97;99935.63;5087381;28;20028;-64
2021/05/13 03:38:37;;;;;;;2.45;2.25;;;;;;;14.65;62.87;99929.94;5091540;28;20387;-64
2021/05/13 03:41:02;;;;;;;2.22;1.88;;;;;;;14.04;63.92;99932.09;5079202;28;20031;-64
2021/05/13 03:43:27;;;;;;;1.90;1.80;;;;;;;13.90;64.42;99929.09;5071497;28;20052;-64
2021/05/13 03:45:53;;;;;;;4.63;2.05;;;;;;;14.80;62.74;99922.34;5075502;28;20107;-63
2021/05/13 03:48:18;;;;;;;2.92;1.92;;;;;;;14.38;63.90;99927.38;5090212;28;20092;-63
2021/05/13 03:50:44;;;;;;;3.05;2.40;;;;;;;14.72;61.78;99923.47;5091621;28;20027;-63
2021/05/13 03:53:09;;;;;;;2.88;2.25;;;;;;;14.35;62.91;99930.16;5088835;28;20475;-64
2021/05/13 03:55:35;;;;;;;1.98;1.88;;;;;;;14.37;62.64;99933.59;5090894;28;20052;-63
2021/05/13 03:58:02;;;;;;;3.60;2.50;;;;;;;14.56;63.59;99927.59;5089277;28;20024;-63
2021/05/13 04:00:46;;;;;;;3.25;2.35;;;;;;;14.51;64.30;99917.19;5090016;28;20055;-65
2021/05/13 04:03:11;;;;;;;3.63;2.15;;;;;;;14.86;62.35;99920.31;5091632;28;20020;-64
2021/05/13 04:05:37;;;;;;;3.55;2.17;;;;;;;14.68;61.52;99921.84;5091250;28;20077;-63
2021/05/13 04:08:03;;;;;;;2.00;1.88;;;;;;;14.10;64.89;99915.13;5087482;28;20028;-63
2021/05/13 04:10:29;;;;;;;9.98;2.10;;;;;;;14.41;63.27;99914.03;5088709;28;20032;-63
2021/05/13 04:12:56;;;;;;;2.30;2.00;;;;;;;14.35;64.56;99914.22;5088387;28;20491;-65
2021/05/13 04:15:21;;;;;;;3.05;2.25;;;;;;;13.71;65.01;99917.34;5074423;28;20036;-65
2021/05/13 04:17:47;;;;;;;2.67;2.45;;;;;;;13.38;66.70;99904.28;5071161;28;20024;-63
2021/05/13 04:20:12;;;;;;;3.03;2.00;;;;;;;14.08;65.27;99906.38;5072115;28;20032;-63
2021/05/13 04:22:37;;;;;;;2.78;2.40;;;;;;;14.50;63.85;99900.38;5080938;28;20074;-64
2021/05/13 04:25:04;;;;;;;2.55;2.35;;;;;;;14.89;62.27;99898.06;5074930;28;20480;-65
2021/05/13 04:27:29;;;;;;;2.78;2.58;;;;;;;14.41;63.87;99890.16;5074799;28;20475;-65
2021/05/13 04:29:55;;;;;;;2.45;2.30;;;;;;;13.66;64.99;99895.44;5074821;28;20028;-65
2021/05/13 04:32:20;;;;;;;2.60;2.40;;;;;;;13.65;66.17;99891.06;5073821;28;20471;-64
2021/05/13 04:34:45;;;;;;;3.35;2.80;;;;;;;14.37;64.84;99885.84;5087704;28;20024;-64
2021/05/13 04:37:10;;;;;;;2.95;2.65;;;;;;;14.29;64.68;99887.94;5088443;28;20024;-63
2021/05/13 04:39:36;;;;;;;2.70;2.25;;;;;;;13.83;65.47;99886.03;5074696;28;20016;-63
2021/05/13 04:42:01;;;;;;;4.63;3.10;;;;;;;13.36;67.63;99895.53;5082697;28;20162;-63
2021/05/13 04:44:26;;;;;;;4.30;2.80;;;;;;;13.69;68.37;99895.34;5074826;28;20096;-63
2021/05/13 04:46:58;;;;;;;3.58;2.65;;;;;;;13.43;67.18;99889.09;5076164;28;20411;-64
2021/05/13 04:49:24;;;;;;;5.53;2.78;;;;;;;13.98;66.26;99885.47;5091406;28;20128;-64
2021/05/13 04:51:49;;;;;;;4.57;2.42;;;;;;;13.85;65.84;99884.19;5093318;28;20028;-64
2021/05/13 04:54:17;;;;;;;3.30;2.38;;;;;;;14.03;64.72;99881.78;5080934;28;20028;-64
2021/05/13 04:56:43;;;;;;;4.72;3.15;;;;;;;13.88;66.78;99877.91;5074184;28;20024;-64
2021/05/13 04:59:08;;;;;;;3.60;2.90;;;;;;;13.47;66.94;99877.50;5085179;28;20050;-63
2021/05/13 05:01:33;;;;;;;5.97;3.13;;;;;;;13.38;68.33;99880.47;5094267;28;20489;-64
2021/05/13 05:03:59;;;;;;;3.20;2.83;;;;;;;14.27;63.82;99857.97;5082290;28;20129;-63
2021/05/13 05:06:25;;;;;;;3.40;2.60;;;;;;;14.02;65.01;99873.00;5074350;28;20055;-63
2021/05/13 05:08:50;;;;;;;3.85;3.08;;;;;;;14.56;64.59;99858.63;5094189;28;20420;-64
2021/05/13 05:11:19;;;;;;;4.32;2.97;;;;;;;14.43;64.86;99853.78;5091882;28;20038;-64
2021/05/13 05:13:44;;;;;;;4.82;3.25;;;;;;;14.53;65.07;99859.59;5086137;28;20020;-65
2021/05/13 05:16:09;;;;;;;4.53;3.85;;;;;;;14.39;64.00;99852.19;5088049;28;20032;-64
2021/05/13 05:18:35;;;;;;;4.25;3.67;;;;;;;14.23;63.41;99841.28;5088388;28;20558;-65
2021/05/13 05:21:00;;;;;;;3.78;3.47;;;;;;;14.54;64.47;99845.41;5094284;28;20051;-64
2021/05/13 05:23:27;;;;;;;3.92;3.15;;;;;;;14.83;64.05;99845.22;5083119;28;20050;-64
2021/05/13 05:25:52;;;;;;;6.32;3.20;;;;;;;14.73;63.09;99842.91;5092835;28;20048;-65
2021/05/13 05:28:18;;;;;;;3.78;3.20;;;;;;;14.92;64.60;99847.50;5093670;28;20164;-64
2021/05/13 05:30:43;;;;;;;6.68;3.85;;;;;;;15.11;63.54;99841.44;5093749;28;20031;-63
2021/05/13 05:33:10;;;;;;;3.47;3.15;;;;;;;15.04;63.43;99848.78;5091092;28;20029;-63
2021/05/13 05:35:37;;;;;;;3.83;3.20;;;;;;;14.93;63.48;99851.88;5083202;28;20035;-63
2021/05/13 05:38:03;;;;;;;4.30;3.90;;;;;;;14.37;65.08;99843.41;5075815;28;20046;-65
2021/05/13 05:40:28;;;;;;;4.28;3.88;;;;;;;13.77;66.96;99846.50;5074178;28;20027;-64
2021/05/13 05:42:54;;;;;;;6.90;3.20;;;;;;;13.66;67.86;99850.38;5088653;28;20024;-65
2021/05/13 05:45:20;;;;;;;4.97;3.25;;;;;;;14.36;66.82;99842.56;5086432;28;20020;-65
2021/05/13 05:47:47;;;;;;;4.35;3.92;;;;;;;14.75;64.18;99848.16;5072192;28;20419;-65
2021/05/13 05:50:12;;;;;;;4.53;3.42;;;;;;;14.47;66.79;99842.13;5072274;28;20081;-64
2021/05/13 05:52:37;;;;;;;3.92;3.63;;;;;;;15.32;61.97;99838.81;5075435;28;20023;-64
2021/05/13 05:55:05;;;;;;;4.53;3.88;;;;;;;14.96;62.62;99841.16;5072216;28;20028;-64
2021/05/13 05:57:30;;;;;;;5.18;4.00;;;;;;;15.20;62.34;99838.41;5083004;28;20078;-65
2021/05/13 05:59:57;;;;;;;4.25;3.85;;;;;;;14.28;66.75;99838.47;5102968;28;20028;-64
2021/05/13 06:02:23;;;;;;;4.40;4.03;;;;;;;14.60;64.19;99834.56;5075463;28;20031;-63
2021/05/13 06:04:50;;;;;;;6.65;4.47;;;;;;;14.75;65.53;99837.53;5082276;28;20032;-63
2021/05/13 06:07:15;;;;;;;5.68;5.03;;;;;;;14.79;66.68;99833.00;5073603;28;20024;-64
2021/05/13 06:09:41;;;;;;;6.38;5.72;;;;;;;15.18;64.85;99842.94;5103853;28;20045;-64
2021/05/13 06:12:07;;;;;;;5.80;5.10;;;;;;;15.15;63.46;99835.09;5113552;28;20026;-64
2021/05/13 06:14:32;;;;;;;7.65;5.03;;;;;;;15.92;62.24;99835.34;5083030;28;20016;-63
2021/05/13 06:16:57;;;;;;;6.90;5.25;;;;;;;15.71;62.93;99835.34;5094197;28;20035;-64
2021/05/13 06:19:22;;;;;;;7.47;6.22;;;;;;;15.20;65.00;99832.25;5095162;28;20024;-63
2021/05/13 06:21:48;;;;;;;7.53;5.78;;;;;;;15.65;63.55;99832.97;5084367;28;20056;-63
2021/05/13 06:24:14;;;;;;;8.27;5.40;;;;;;;16.12;62.43;99833.59;5085104;28;20024;-64
2021/05/13 06:26:40;;;;;;;6.82;5.32;;;;;;;15.40;63.17;99834.03;5091893;28;20028;-64
2021/05/13 06:29:06;;;;;;;7.05;5.72;;;;;;;15.65;63.42;99832.97;5080965;28;20162;-63
2021/05/13 06:31:33;;;;;;;9.70;6.20;;;;;;;16.21;61.99;99834.97;5087359;28;20491;-63
2021/05/13 06:33:59;;;;;;;6.60;5.75;;;;;;;16.84;60.00;99836.44;5085097;28;20019;-63
2021/05/13 06:36:25;;;;;;;6.93;6.28;;;;;;;15.74;63.19;99837.03;5083295;28;20028;-64
2021/05/13 06:38:50;;;;;;;8.68;6.55;;;;;;;16.01;63.67;99829.63;5071960;28;20024;-65
2021/05/13 06:41:15;;;;;;;8.00;6.63;;;;;;;15.84;63.61;99838.34;5080631;28;20029;-65
2021/05/13 06:43:41;;;;;;;6.80;6.10;;;;;;;15.87;63.58;99840.88;5072042;28;20476;-63
2021/05/13 06:46:06;;;;;;;6.70;5.57;;;;;;;15.66;63.70;99840.03;5070308;28;20032;-63
2021/05/13 06:48:34;;;;;;;7.40;6.25;;;;;;;16.36;62.64;99844.03;5080462;28;20162;-65
2021/05/13 06:51:00;;;;;;;6.95;6.18;;;;;;;16.58;60.88;99833.25;5082845;28;20020;-65
2021/05/13 06:53:25;;;;;;;7.75;5.47;;;;;;;16.93;60.03;99844.00;5080597;28;20032;-65
2021/05/13 06:55:53;;;;;;;8.05;6.22;;;;;;;16.80;61.25;99848.19;5089017;28;20097;-65
2021/05/13 06:58:23;;;;;;;8.68;5.65;;;;;;;16.15;61.59;99842.28;5080750;28;20051;-64
2021/05/13 07:00:49;;;;;;;6.07;5.47;;;;;;;16.61;61.36;99849.06;5077115;28;20020;-64
2021/05/13 07:03:15;;;;;;;7.00;5.25;;;;;;;16.11;62.41;99843.38;5079656;28;20060;-64
2021/05/13 07:05:41;;;;;;;6.45;4.38;;;;;;;15.95;62.28;99847.63;5080514;28;20020;-64
2021/05/13 07:08:07;;;;;;;6.97;4.75;;;;;;;16.27;61.29;99843.53;5080272;28;20024;-64
2021/05/13 07:10:34;;;;;;;5.40;4.90;;;;;;;15.85;62.49;99850.72;5079890;28;20102;-63
2021/05/13 07:12:59;;;;;;;7.13;4.22;;;;;;;15.90;63.05;99850.50;5079860;28;20046;-67
2021/05/13 07:15:24;;;;;;;6.22;4.70;;;;;;;16.14;63.41;99855.69;5075812;28;20020;-65
2021/05/13 07:17:50;;;;;;;5.88;3.42;;;;;;;16.45;62.06;99856.06;5080975;28;20031;-65
2021/05/13 07:20:15;;;;;;;6.25;4.53;;;;;;;16.82;59.04;99856.97;5071787;28;20024;-65
2021/05/13 07:22:41;;;;;;;4.05;3.65;;;;;;;16.61;61.29;99851.72;5072830;28;20028;-64
2021/05/13 07:25:06;;;;;;;5.35;3.65;;;;;;;16.76;60.20;99858.13;5071324;28;20038;-64
2021/05/13 07:27:32;;;;;;;4.57;3.90;;;;;;;16.51;60.25;99842.47;5072553;28;20119;-64
2021/05/13 07:29:57;;;;;;;7.43;3.70;;;;;;;16.51;61.42;99853.97;5071688;28;20035;-64
2021/05/13 07:32:22;;;;;;;5.07;3.85;;;;;;;17.00;59.80;99860.53;5084945;28;20023;-65
2021/05/13 07:34:47;;;;;;;4.25;3.70;;;;;;;16.90;58.63;99853.91;5083892;28;20027;-64
2021/05/13 07:37:13;;;;;;;4.43;3.80;;;;;;;16.54;61.44;99848.50;5071452;28;20035;-64
2021/05/13 07:39:38;;;;;;;5.97;4.63;;;;;;;16.54;62.90;99858.31;5078502;28;20526;-65
2021/05/13 07:42:03;;;;;;;5.72;5.13;;;;;;;16.44;63.03;99855.19;5071661;28;20025;-65
2021/05/13 07:44:29;;;;;;;5.78;3.83;;;;;;;16.62;60.75;99852.59;5074190;28;20027;-64
2021/05/13 07:46:57;;;;;;;5.47;3.67;;;;;;;16.69;61.61;99862.03;5081208;28;20391;-65
2021/05/13 07:49:22;;;;;;;4.47;4.07;;;;;;;16.76;60.88;99858.13;5075142;28;20020;-65
2021/05/13 07:51:48;;;;;;;4.30;3.90;;;;;;;16.66;62.13;99856.84;5074031;28;20063;-63
2021/05/13 07:54:14;;;;;;;7.50;4.22;;;;;;;16.88;61.41;99855.81;5071057;28;20031;-65
2021/05/13 07:56:39;;;;;;;5.95;3.55;;;;;;;16.89;60.40;99862.84;5076055;28;20059;-64
2021/05/13 07:59:05;;;;;;;5.63;4.05;;;;;;;16.54;61.34;99860.97;5094669;28;20023;-64
2021/05/13 08:01:30;;;;;;;4.22;3.83;;;;;;;16.84;61.14;99855.09;5074658;28;20077;-64
2021/05/13 08:03:55;;;;;;;4.50;4.05;;;;;;;16.76;59.99;99855.47;5082746;28;20028;-64
2021/05/13 08:06:20;;;;;;;4.75;4.13;;;;;;;16.30;63.78;99866.47;5086935;28;20021;-64
2021/05/13 08:08:46;;;;;;;5.50;4.07;;;;;;;16.61;63.48;99864.19;5087099;28;20585;-64
2021/05/13 08:11:11;;;;;;;4.35;3.95;;;;;;;16.86;61.25;99857.66;5079091;28;20027;-64
2021/05/13 08:13:36;;;;;;;5.75;4.00;;;;;;;16.85;61.26;99862.16;5082351;28;20020;-63
2021/05/13 08:16:02;;;;;;;5.03;4.38;;;;;;;17.49;58.15;99867.03;5089893;28;20372;-64
2021/05/13 08:18:28;;;;;;;11.20;4.93;;;;;;;17.24;61.57;99878.94;5082868;28;20116;-64
2021/05/13 08:20:53;;;;;;;6.75;4.53;;;;;;;17.21;60.53;99865.78;5078146;28;20548;-64
2021/05/13 08:23:18;;;;;;;5.78;4.85;;;;;;;16.90;61.35;99864.56;5070814;28;20024;-64
2021/05/13 08:25:43;;;;;;;5.65;5.15;;;;;;;17.84;58.54;99860.81;5078933;28;20024;-64
2021/05/13 08:28:09;;;;;;;7.25;5.20;;;;;;;17.30;61.00;99867.97;5085916;28;20387;-64
2021/05/13 08:30:34;;;;;;;6.38;5.78;;;;;;;17.27;60.32;99867.28;5078779;28;20451;-64
2021/05/13 08:33:00;;;;;;;7.65;6.50;;;;;;;16.95;61.32;99854.59;5074888;28;20029;-64
2021/05/13 08:35:25;;;;;;;6.10;5.50;;;;;;;17.56;59.89;99870.25;5079417;28;20032;-64
2021/05/13 08:37:51;;;;;;;8.73;5.75;;;;;;;17.39;59.33;99864.00;5087475;28;20070;-63
2021/05/13 08:40:16;;;;;;;6.13;5.32;;;;;;;17.10;61.78;99868.13;5089437;28;20052;-64
2021/05/13 08:42:41;;;;;;;7.07;6.35;;;;;;;17.40;61.03;99868.38;5081010;28;20017;-62
2021/05/13 08:45:07;;;;;;;7.45;6.00;;;;;;;17.51;59.61;99864.31;5080129;28;20071;-65
2021/05/13 08:47:37;;;;;;;7.05;6.20;;;;;;;17.29;61.72;99860.94;5067546;28;20063;-65
2021/05/13 08:50:02;;;;;;;7.07;6.38;;;;;;;17.66;61.78;99862.63;5090813;28;20020;-63
2021/05/13 08:52:28;;;;;;;9.65;7.38;;;;;;;17.44;62.38;99863.75;5083066;28;20024;-63
2021/05/13 08:54:55;;;;;;;10.13;7.13;;;;;;;17.77;58.89;99860.28;5083535;28;20527;-63
2021/05/13 08:57:21;;;;;;;8.30;7.10;;;;;;;17.67;58.76;99859.03;5081870;28;20020;-64
2021/05/13 08:59:47;;;;;;;8.93;6.68;;;;;;;18.08;57.10;99861.31;5092671;28;20032;-64
2021/05/13 09:02:16;;;;;;;8.05;6.53;;;;;;;18.13;58.70;99849.56;5082082;28;20479;-64
2021/05/13 09:04:47;;;;;;;7.25;6.43;;;;;;;17.86;58.16;99863.41;5075455;28;20046;-64
2021/05/13 09:07:29;;;;;;;8.00;5.75;;;;;;;17.63;58.65;99852.13;5077474;28;20044;-65
2021/05/13 09:09:55;;;;;;;9.32;6.70;;;;;;;18.01;57.91;99856.41;5080313;28;20158;-65
2021/05/13 09:12:21;;;;;;;7.47;6.78;;;;;;;18.49;57.34;99848.50;5078025;28;20119;-64
2021/05/13 09:14:55;;;;;;;7.38;6.68;;;;;;;18.17;57.83;99849.31;5090902;28;20024;-65
2021/05/13 09:17:24;;;;;;;6.50;6.00;;;;;;;17.83;59.37;99851.97;5087154;28;20031;-65
2021/05/13 09:19:49;;;;;;;6.72;6.10;;;;;;;18.32;57.23;99844.09;5091555;28;20467;-64
2021/05/13 09:22:20;;;;;;;7.25;6.55;;;;;;;18.79;54.48;99847.72;5093951;28;20032;-65
2021/05/13 09:24:55;;;;;;;8.05;5.63;;;;;;;18.59;56.10;99847.06;5094232;28;20024;-65
2021/05/13 09:27:40;;;;;;;6.72;6.13;;;;;;;18.87;55.45;99846.44;5094053;28;20035;-65
2021/05/13 09:30:11;;;;;;;6.07;5.47;;;;;;;18.08;56.58;99842.63;5076961;28;20029;-65
2021/05/13 09:32:37;;;;;;;6.85;6.15;;;;;;;18.57;55.29;99838.25;5072647;28;20028;-65
2021/05/13 09:35:06;;;;;;;7.45;6.32;;;;;;;18.23;56.84;99840.13;5072515;28;20020;-65
2021/05/13 09:37:47;;;;;;;7.10;6.40;;;;;;;18.68;54.55;99829.63;5072329;28;20043;-65
2021/05/13 09:40:14;;;;;;;7.32;6.65;;;;;;;19.21;54.06;99845.34;5088390;28;20020;-64
2021/05/13 09:42:40;;;;;;;8.15;7.25;;;;;;;19.18;54.52;99839.34;5092701;28;20039;-65
2021/05/13 09:45:07;;;;;;;7.22;6.63;;;;;;;18.81;55.11;99840.47;5092401;28;20479;-65
2021/05/13 09:47:33;;;;;;;7.03;6.32;;;;;;;19.16;54.75;99844.78;5092399;28;20024;-65
2021/05/13 09:50:04;;;;;;;7.28;6.68;;;;;;;19.47;52.47;99831.38;5090710;28;20154;-64
2021/05/13 09:52:39;;;;;;;;;;;;;;;18.91;56.41;99842.63;5086418;28;20020;-65
2021/05/13 09:55:35;;;;;;;7.25;6.65;;;;;;;19.34;53.13;99836.63;5082693;28;20112;-65
2021/05/13 09:58:09;;;;;;;7.18;6.55;;;;;;;19.46;54.60;99835.03;5086210;28;20105;-64
2021/05/13 10:01:01;;;;;;;6.40;5.80;;;;;;;19.62;53.30;99826.94;5072250;28;20024;-64
2021/05/13 10:03:26;;;;;;;6.85;5.65;;;;;;;19.78;52.24;99824.19;5081779;28;20521;-64
2021/05/13 10:05:54;;;;;;;5.50;5.00;;;;;;;19.86;52.37;99835.28;5082302;28;20102;-64
2021/05/13 10:08:20;;;;;;;6.00;5.43;;;;;;;19.41;52.55;99831.78;5073498;28;20032;-64
2021/05/13 10:10:46;;;;;;;5.30;4.68;;;;;;;19.69;53.45;99830.09;5088399;28;20016;-64
2021/05/13 10:13:12;;;;;;;8.52;5.68;;;;;;;20.38;52.80;99832.97;5079111;28;20090;-64
2021/05/13 10:15:40;;;;;;;6.10;5.60;;;;;;;19.86;53.52;99832.59;5083300;28;20017;-64
2021/05/13 10:18:27;;;;;;;5.65;5.00;;;;;;;19.75;53.61;99824.38;5083500;28;20027;-64
2021/05/13 10:20:59;;;;;;;5.50;5.00;;;;;;;20.30;52.32;99829.94;5086367;28;20036;-64
2021/05/13 10:23:25;;;;;;;5.65;4.43;;;;;;;20.33;52.70;99824.38;5065221;28;20024;-64
2021/05/13 10:25:50;;;;;;;4.10;3.65;;;;;;;20.54;50.31;99823.13;5071351;28;20028;-64
2021/05/13 10:28:16;;;;;;;4.93;4.38;;;;;;;20.35;52.25;99819.81;5072514;28;20110;-65
2021/05/13 10:30:42;;;;;;;4.15;3.72;;;;;;;20.85;50.09;99821.97;5081607;28;20036;-65
2021/05/13 10:33:16;;;;;;;4.05;3.75;;;;;;;19.94;52.86;99817.91;5069582;28;20053;-65
2021/05/13 10:36:07;;;;;;;3.72;3.13;;;;;;;19.59;54.00;99814.63;5070058;28;20032;-65
2021/05/13 10:38:48;;;;;;;4.70;3.50;;;;;;;20.47;52.43;99809.28;5085313;28;20445;-65
2021/05/13 10:41:29;;;;;;;3.67;2.80;;;;;;;20.00;52.69;99820.19;5085162;28;20083;-64
2021/05/13 10:43:55;;;;;;;3.25;2.83;;;;;;;20.07;52.35;99818.88;5084668;28;20027;-65
2021/05/13 10:46:30;;;;;;;3.28;2.95;;;;;;;20.28;51.91;99821.16;5090137;28;20082;-65
2021/05/13 10:49:15;;;;;;;2.70;2.50;;;;;;;20.08;51.51;99809.88;5080304;28;20034;-64
2021/05/13 10:51:41;;;;;;;2.78;2.10;;;;;;;20.22;50.22;99810.81;5074066;28;20110;-65
2021/05/13 10:54:07;;;;;;;2.78;2.20;;;;;;;20.64;48.27;99809.00;5086783;28;20098;-65
2021/05/13 10:56:37;;;;;;;2.65;2.33;;;;;;;20.09;50.24;99811.63;5085492;28;20629;-65
2021/05/13 10:59:07;;;;;;;3.85;2.75;;;;;;;20.41;51.13;99813.19;5071566;28;20127;-65
2021/05/13 11:01:46;;;;;;;5.30;4.00;;;;;;;19.31;53.50;99816.25;5068791;28;20462;-64
2021/05/13 11:04:20;;;;;;;4.65;3.50;;;;;;;20.03;52.98;99814.66;5071314;28;20032;-65
2021/05/13 11:06:48;;;;;;;4.90;3.10;;;;;;;20.26;51.81;99812.34;5075720;28;20034;-65
2021/05/13 11:09:39;;;;;;;3.45;2.97;;;;;;;19.77;52.62;99805.56;5076372;28;20128;-65
2021/05/13 11:12:12;;;;;;;4.90;3.15;;;;;;;19.42;53.70;99801.41;5082431;28;20063;-63
2021/05/13 11:14:58;;;;;;;4.05;3.15;;;;;;;19.92;52.64;99799.25;5082457;28;20027;-65
2021/05/13 11:17:44;;;;;;;5.85;3.00;;;;;;;19.58;52.78;99793.31;5073716;28;20457;-64
2021/05/13 11:20:27;;;;;;;4.53;3.40;;;;;;;19.75;52.22;99800.31;5080229;28;20387;-64
2021/05/13 11:23:05;;;;;;;4.97;3.70;;;;;;;20.60;53.19;99795.91;5087034;28;20422;-64
2021/05/13 11:25:42;;;;;;;3.38;3.08;;;;;;;20.07;52.34;99797.44;5075378;28;20059;-64
2021/05/13 11:28:29;;;;;;;3.95;3.50;;;;;;;20.26;52.37;99790.94;5102436;28;20152;-65
2021/05/13 11:31:08;;;;;;;4.75;3.33;;;;;;;20.59;51.14;99792.41;5085113;28;20258;-64
2021/05/13 11:33:40;;;;;;;4.47;2.83;;;;;;;21.68;50.28;99792.34;5098058;28;20024;-64
2021/05/13 11:36:07;;;;;;;3.28;2.97;;;;;;;21.91;49.24;99789.88;5073592;28;20036;-65
2021/05/13 11:38:32;;;;;;;3.47;2.75;;;;;;;21.61;50.04;99794.56;5064270;28;20024;-65
2021/05/13 11:40:58;;;;;;;3.60;2.20;;;;;;;21.12;47.82;99797.00;5087611;28;20436;-64
2021/05/13 11:43:32;;;;;;;2.70;2.50;;;;;;;20.31;49.91;99793.31;5067827;28;20078;-65